Time;durP1;ratioP1;P1;durP2;ratioP2;P2;SDS_P1;SDS_P2;PMS_P1;PMS_P2;Temp;Humidity;BMP_temperature;BMP_pressure;BME280_temperature;BME280_humidity;BME280_pressure;Samples;Min_cycle;Max_cycle;Signal;HPM_P1;HPM_P2
2022/11/12 00:01:02;;;;;;;7.85;5.32;;;;;;;;;;5076447;28;20098;-40
2022/11/12 00:03:28;;;;;;;8.35;5.72;;;;;;;;;;5067145;28;20078;-41
2022/11/12 00:05:54;;;;;;;7.28;5.55;;;;;;;;;;5066665;28;20021;-40
2022/11/12 00:08:20;;;;;;;7.75;5.50;;;;;;;;;;5070497;28;20025;-40
2022/11/12 00:10:46;;;;;;;7.15;5.10;;;;;;;;;;5075515;28;20032;-40
2022/11/12 00:13:13;;;;;;;9.27;6.28;;;;;;;;;;5079452;28;20410;-40
2022/11/12 00:15:39;;;;;;;7.10;5.05;;;;;;;;;;5089414;28;20069;-40
2022/11/12 00:18:06;;;;;;;7.55;5.53;;;;;;;;;;5088513;28;20063;-40
2022/11/12 00:20:32;;;;;;;8.07;5.85;;;;;;;;;;5070771;28;20020;-40
2022/11/12 00:22:58;;;;;;;6.53;5.18;;;;;;;;;;5068257;28;20086;-40
2022/11/12 00:25:24;;;;;;;7.80;5.40;;;;;;;;;;5068243;28;20476;-40
2022/11/12 00:27:50;;;;;;;7.25;5.38;;;;;;;;;;5085496;28;20039;-40
2022/11/12 00:30:16;;;;;;;6.75;4.43;;;;;;;;;;5073837;28;20615;-40
2022/11/12 00:32:42;;;;;;;6.25;4.88;;;;;;;;;;5069136;28;20103;-40
2022/11/12 00:35:08;;;;;;;5.30;3.55;;;;;;;;;;5072014;28;20582;-40
2022/11/12 00:37:34;;;;;;;3.58;2.80;;;;;;;;;;5071379;28;20039;-40
2022/11/12 00:40:00;;;;;;;3.53;2.65;;;;;;;;;;5072319;28;20395;-40
2022/11/12 00:42:26;;;;;;;3.33;2.47;;;;;;;;;;5071919;28;20085;-40
2022/11/12 00:44:52;;;;;;;2.88;2.28;;;;;;;;;;5071746;28;20067;-40
2022/11/12 00:47:18;;;;;;;3.40;2.35;;;;;;;;;;5071626;28;20032;-40
2022/11/12 00:49:44;;;;;;;2.97;1.90;;;;;;;;;;5071772;28;20028;-40
2022/11/12 00:52:10;;;;;;;2.88;2.35;;;;;;;;;;5071638;28;20399;-40
2022/11/12 00:54:36;;;;;;;2.67;2.10;;;;;;;;;;5071675;28;20060;-40
2022/11/12 06:03:12;;;;;;;3.05;2.40;;;;;;;;;;5092081;28;20032;-40
2022/11/12 06:05:38;;;;;;;3.05;2.33;;;;;;;;;;5092326;28;20039;-40
2022/11/12 06:08:05;;;;;;;3.03;2.20;;;;;;;;;;5092188;28;20407;-40
2022/11/12 06:10:31;;;;;;;3.33;2.47;;;;;;;;;;5092943;28;20024;-40
2022/11/12 06:12:57;;;;;;;2.50;2.30;;;;;;;;;;5092367;28;20020;-40
2022/11/12 06:15:25;;;;;;;2.80;1.92;;;;;;;;;;5089920;28;20028;-40
2022/11/12 06:17:52;;;;;;;2.75;2.22;;;;;;;;;;5072210;28;20475;-40
2022/11/12 06:20:18;;;;;;;2.75;2.28;;;;;;;;;;5071761;28;20082;-40
2022/11/12 06:22:44;;;;;;;1.83;1.52;;;;;;;;;;5071785;28;20052;-40
2022/11/12 06:25:10;;;;;;;5.80;2.00;;;;;;;;;;5080379;28;20074;-40
2022/11/12 06:27:36;;;;;;;2.60;1.80;;;;;;;;;;5091894;28;20114;-40
2022/11/12 06:30:03;;;;;;;2.22;2.00;;;;;;;;;;5092105;28;20479;-40
2022/11/12 06:32:29;;;;;;;3.45;2.25;;;;;;;;;;5088992;28;20024;-40
2022/11/12 06:34:55;;;;;;;2.60;2.10;;;;;;;;;;5088613;28;20039;-40
2022/11/12 06:37:21;;;;;;;2.47;1.98;;;;;;;;;;5091750;28;20035;-40
2022/11/12 06:39:47;;;;;;;4.70;2.38;;;;;;;;;;5092137;28;20036;-40
2022/11/12 06:42:13;;;;;;;2.97;1.90;;;;;;;;;;5076629;28;20495;-40
2022/11/12 06:44:39;;;;;;;2.75;1.90;;;;;;;;;;5071029;28;20028;-40
2022/11/12 06:47:05;;;;;;;3.28;2.00;;;;;;;;;;5087419;28;20039;-40
2022/11/12 06:49:31;;;;;;;3.00;2.40;;;;;;;;;;5092334;28;20117;-40
2022/11/12 06:51:57;;;;;;;2.35;1.80;;;;;;;;;;5091996;28;20066;-40
2022/11/12 06:54:23;;;;;;;2.75;2.00;;;;;;;;;;5092224;28;20379;-40
2022/11/12 06:56:49;;;;;;;3.28;2.75;;;;;;;;;;5084980;28;20079;-40
2022/11/12 06:59:16;;;;;;;3.17;2.47;;;;;;;;;;5087463;28;20111;-40
2022/11/12 07:01:42;;;;;;;2.63;2.28;;;;;;;;;;5092010;28;20054;-40
2022/11/12 07:04:09;;;;;;;3.50;2.50;;;;;;;;;;5091623;28;20528;-41
2022/11/12 07:06:35;;;;;;;4.20;2.30;;;;;;;;;;5090646;28;20395;-40
2022/11/12 07:09:01;;;;;;;3.78;2.50;;;;;;;;;;5092157;28;20028;-40
2022/11/12 07:11:27;;;;;;;3.50;2.70;;;;;;;;;;5084552;28;20025;-40
2022/11/12 07:13:53;;;;;;;3.53;2.58;;;;;;;;;;5091414;28;20028;-40
2022/11/12 07:16:19;;;;;;;3.53;2.80;;;;;;;;;;5091524;28;20027;-40
2022/11/12 07:18:45;;;;;;;3.42;2.42;;;;;;;;;;5090609;28;20095;-40
2022/11/12 07:21:13;;;;;;;2.97;2.45;;;;;;;;;;5091754;28;20027;-40
2022/11/12 07:23:39;;;;;;;3.20;2.10;;;;;;;;;;5090464;28;20035;-40
2022/11/12 07:26:06;;;;;;;3.20;2.20;;;;;;;;;;5091814;28;20085;-40
2022/11/12 07:28:32;;;;;;;2.53;2.17;;;;;;;;;;5073835;28;20372;-40
2022/11/12 07:31:00;;;;;;;3.05;2.47;;;;;;;;;;5079620;28;20107;-40
2022/11/12 07:33:26;;;;;;;3.60;2.45;;;;;;;;;;5086983;28;20087;-40
2022/11/12 07:35:57;;;;;;;3.38;2.80;;;;;;;;;;5081607;28;20051;-40
2022/11/12 07:38:23;;;;;;;2.85;2.13;;;;;;;;;;5071218;28;20028;-40
2022/11/12 07:40:49;;;;;;;3.10;2.40;;;;;;;;;;5070979;28;20139;-40
2022/11/12 07:43:15;;;;;;;4.35;2.50;;;;;;;;;;5072455;28;20074;-40
2022/11/12 07:45:41;;;;;;;2.78;1.98;;;;;;;;;;5073282;28;20395;-40
2022/11/12 07:48:06;;;;;;;3.00;2.13;;;;;;;;;;5091652;28;20032;-40
2022/11/12 07:50:32;;;;;;;3.35;2.50;;;;;;;;;;5085792;28;20020;-40
2022/11/12 07:52:59;;;;;;;4.00;2.85;;;;;;;;;;5072251;28;20066;-40
2022/11/12 07:55:25;;;;;;;3.80;2.50;;;;;;;;;;5079750;28;20033;-40
2022/11/12 07:57:52;;;;;;;2.33;2.10;;;;;;;;;;5069000;28;20455;-40
2022/11/12 08:00:18;;;;;;;3.10;2.30;;;;;;;;;;5069756;28;20112;-41
2022/11/12 08:02:44;;;;;;;3.10;2.33;;;;;;;;;;5082341;28;20023;-41
2022/11/12 08:05:10;;;;;;;3.63;2.42;;;;;;;;;;5103697;28;20040;-41
2022/11/12 08:07:36;;;;;;;3.42;2.83;;;;;;;;;;5094798;28;20070;-40
2022/11/12 08:10:02;;;;;;;3.17;2.67;;;;;;;;;;5093518;28;20077;-40
2022/11/12 08:12:29;;;;;;;4.38;2.95;;;;;;;;;;5101863;28;20100;-40
2022/11/12 08:14:55;;;;;;;4.78;3.00;;;;;;;;;;5080261;28;20024;-40
2022/11/12 08:17:21;;;;;;;3.53;2.40;;;;;;;;;;5105844;28;20085;-40
2022/11/12 08:19:47;;;;;;;2.92;2.22;;;;;;;;;;5092646;28;20063;-40
2022/11/12 08:22:14;;;;;;;4.72;3.38;;;;;;;;;;5086009;28;20411;-40
2022/11/12 08:24:40;;;;;;;3.13;2.35;;;;;;;;;;5085248;28;20090;-40
2022/11/12 08:27:07;;;;;;;3.15;2.38;;;;;;;;;;5085468;28;20372;-40
2022/11/12 08:29:34;;;;;;;3.22;2.38;;;;;;;;;;5085270;28;20440;-40
2022/11/12 08:32:00;;;;;;;2.90;2.38;;;;;;;;;;5098545;28;20024;-40
2022/11/12 08:34:26;;;;;;;3.97;2.75;;;;;;;;;;5105469;28;20028;-40
2022/11/12 08:36:52;;;;;;;3.22;2.50;;;;;;;;;;5105401;28;20027;-40
2022/11/12 08:39:19;;;;;;;3.28;2.80;;;;;;;;;;5105446;28;20027;-39
2022/11/12 08:41:45;;;;;;;2.72;2.50;;;;;;;;;;5072985;28;20035;-40
2022/11/12 08:44:12;;;;;;;3.75;2.90;;;;;;;;;;5080417;28;20027;-39
2022/11/12 08:46:38;;;;;;;3.03;2.72;;;;;;;;;;5105140;28;20039;-40
2022/11/12 08:49:04;;;;;;;3.42;2.72;;;;;;;;;;5087636;28;20566;-40
2022/11/12 08:51:30;;;;;;;3.45;2.97;;;;;;;;;;5083029;28;20028;-40
2022/11/12 08:53:56;;;;;;;3.30;2.70;;;;;;;;;;5084527;28;20391;-40
2022/11/12 08:56:22;;;;;;;2.85;2.50;;;;;;;;;;5073486;28;20589;-40
2022/11/12 08:58:48;;;;;;;3.10;2.60;;;;;;;;;;5063273;28;20059;-40
2022/11/12 09:01:14;;;;;;;3.65;3.00;;;;;;;;;;5062265;28;20078;-40
2022/11/12 09:03:40;;;;;;;2.83;2.53;;;;;;;;;;5061027;28;20778;-40
2022/11/12 09:06:07;;;;;;;3.50;2.67;;;;;;;;;;5061982;28;20033;-40
2022/11/12 09:08:34;;;;;;;3.72;2.97;;;;;;;;;;5066189;28;20031;-40
2022/11/12 09:11:00;;;;;;;5.70;4.07;;;;;;;;;;5085579;28;20716;-40
2022/11/12 09:13:26;;;;;;;5.50;3.83;;;;;;;;;;5086508;28;20028;-40
2022/11/12 09:15:52;;;;;;;6.95;3.17;;;;;;;;;;5075462;28;20054;-40
2022/11/12 09:18:18;;;;;;;4.22;3.50;;;;;;;;;;5087481;28;20506;-40
2022/11/12 09:20:45;;;;;;;4.75;3.65;;;;;;;;;;5090527;28;20032;-40
2022/11/12 09:23:12;;;;;;;4.63;3.78;;;;;;;;;;5108514;28;20023;-40
2022/11/12 09:25:39;;;;;;;5.32;4.13;;;;;;;;;;5092965;28;20587;-40
2022/11/12 09:28:07;;;;;;;3.47;2.92;;;;;;;;;;5088877;28;20094;-40
2022/11/12 09:30:33;;;;;;;3.72;3.05;;;;;;;;;;5089536;28;20020;-40
2022/11/12 09:32:59;;;;;;;3.65;2.92;;;;;;;;;;5089288;28;20024;-40
2022/11/12 09:35:25;;;;;;;3.50;2.50;;;;;;;;;;5108336;28;20490;-40
2022/11/12 09:37:52;;;;;;;3.17;2.55;;;;;;;;;;5108774;28;20068;-40
2022/11/12 09:40:18;;;;;;;2.50;2.30;;;;;;;;;;5090336;28;20498;-40
2022/11/12 09:42:49;;;;;;;2.80;2.40;;;;;;;;;;5089984;28;20061;-40
2022/11/12 09:45:21;;;;;;;3.15;2.42;;;;;;;;;;5088921;28;20028;-40
2022/11/12 09:47:51;;;;;;;2.63;2.30;;;;;;;;;;5078858;28;20071;-40
2022/11/12 09:50:28;;;;;;;2.83;2.42;;;;;;;;;;5069132;28;20039;-40
2022/11/12 09:53:02;;;;;;;3.35;2.30;;;;;;;;;;5080400;28;20039;-40
2022/11/12 09:55:31;;;;;;;3.65;2.20;;;;;;;;;;5087143;28;20024;-40
2022/11/12 09:57:57;;;;;;;2.92;2.30;;;;;;;;;;5082048;28;20036;-40
2022/11/12 10:00:23;;;;;;;2.92;2.13;;;;;;;;;;5077791;28;20024;-40
2022/11/12 10:03:02;;;;;;;2.65;2.10;;;;;;;;;;5067681;28;20028;-40
2022/11/12 10:05:49;;;;;;;2.67;2.20;;;;;;;;;;5071973;28;20043;-40
2022/11/12 10:08:27;;;;;;;2.53;2.13;;;;;;;;;;5073521;28;20040;-40
2022/11/12 10:11:16;;;;;;;3.00;2.50;;;;;;;;;;5071975;28;20017;-40
2022/11/12 10:13:42;;;;;;;2.55;1.98;;;;;;;;;;5039857;28;20044;-40
2022/11/12 10:19:17;;;;;;;3.20;2.58;;;;;;;;;;5068926;28;20549;-40
2022/11/12 10:21:50;;;;;;;3.00;2.45;;;;;;;;;;5078826;28;20074;-40
2022/11/12 10:24:20;;;;;;;2.15;1.95;;;;;;;;;;5084169;28;20036;-40
2022/11/12 10:26:46;;;;;;;2.88;2.30;;;;;;;;;;5088438;28;20046;-40
2022/11/12 10:29:16;;;;;;;3.40;2.22;;;;;;;;;;5080230;28;20029;-40
2022/11/12 10:31:43;;;;;;;3.15;2.10;;;;;;;;;;5084424;28;20027;-40
2022/11/12 10:34:18;;;;;;;2.25;2.03;;;;;;;;;;5084792;28;20032;-40
2022/11/12 10:36:55;;;;;;;3.00;2.20;;;;;;;;;;5086684;28;20048;-40
2022/11/12 10:39:31;;;;;;;2.45;2.20;;;;;;;;;;5086733;28;20028;-40
2022/11/12 10:42:04;;;;;;;2.35;2.13;;;;;;;;;;5087266;28;20024;-40
2022/11/12 10:44:30;;;;;;;2.40;2.00;;;;;;;;;;5086589;28;20020;-40
2022/11/12 10:47:16;;;;;;;2.63;2.22;;;;;;;;;;5087028;28;20081;-40
2022/11/12 10:49:42;;;;;;;2.15;1.67;;;;;;;;;;5086338;28;20144;-40
2022/11/12 10:52:29;;;;;;;1.90;1.70;;;;;;;;;;5086305;28;20100;-40
2022/11/12 10:55:04;;;;;;;2.28;2.08;;;;;;;;;;5086807;28;20085;-40
2022/11/12 10:57:30;;;;;;;1.98;1.77;;;;;;;;;;5086313;28;20380;-40
2022/11/12 11:00:11;;;;;;;1.90;1.70;;;;;;;;;;5086664;28;20036;-40
2022/11/12 11:02:38;;;;;;;2.00;1.67;;;;;;;;;;5086435;28;20111;-40
2022/11/12 11:05:27;;;;;;;1.98;1.80;;;;;;;;;;5085812;28;20040;-40
2022/11/12 11:07:53;;;;;;;2.15;1.70;;;;;;;;;;5085917;28;20043;-40
2022/11/12 11:10:26;;;;;;;2.67;2.00;;;;;;;;;;5085961;28;21072;-40
2022/11/12 11:13:16;;;;;;;2.33;2.05;;;;;;;;;;5086210;28;20073;-40
2022/11/12 11:15:56;;;;;;;2.17;1.83;;;;;;;;;;5086073;28;20415;-40
2022/11/12 11:18:24;;;;;;;1.70;1.60;;;;;;;;;;5085877;28;20102;-40
2022/11/12 11:21:10;;;;;;;2.83;1.98;;;;;;;;;;5085934;28;20035;-40
2022/11/12 11:23:48;;;;;;;1.73;1.63;;;;;;;;;;5034772;28;20116;-40
2022/11/12 11:26:35;;;;;;;2.30;1.95;;;;;;;;;;5085645;28;20024;-40
2022/11/12 11:29:04;;;;;;;2.05;1.70;;;;;;;;;;5085653;28;20027;-40
2022/11/12 11:31:39;;;;;;;2.28;1.88;;;;;;;;;;5085877;28;20024;-40
2022/11/12 11:34:17;;;;;;;2.97;2.00;;;;;;;;;;5085410;28;20047;-40
2022/11/12 11:36:48;;;;;;;2.55;1.95;;;;;;;;;;5085598;28;20043;-41
2022/11/12 11:39:17;;;;;;;2.35;2.05;;;;;;;;;;5085649;28;20024;-40
2022/11/12 11:41:46;;;;;;;2.55;2.05;;;;;;;;;;5085551;28;20108;-40
2022/11/12 11:44:20;;;;;;;2.67;2.05;;;;;;;;;;5085437;28;20028;-40
2022/11/12 11:46:57;;;;;;;2.92;2.30;;;;;;;;;;5085344;28;20057;-40
2022/11/12 11:49:42;;;;;;;3.15;2.50;;;;;;;;;;5085853;28;20099;-41
2022/11/12 11:52:25;;;;;;;2.42;2.20;;;;;;;;;;5085177;28;20108;-40
2022/11/12 11:55:10;;;;;;;3.53;2.70;;;;;;;;;;5085135;28;20566;-40
2022/11/12 11:57:36;;;;;;;;;;;;;;;;;;5077040;28;20859;-40
2022/11/12 12:00:21;;;;;;;4.40;3.08;;;;;;;;;;5071597;28;19912;-40
2022/11/12 12:03:05;;;;;;;4.55;2.85;;;;;;;;;;5083836;28;20054;-40
2022/11/12 12:05:34;;;;;;;3.47;3.00;;;;;;;;;;5069472;28;20051;-40
2022/11/12 12:08:08;;;;;;;5.47;2.90;;;;;;;;;;5075566;28;20111;-40
2022/11/12 12:10:43;;;;;;;3.63;3.03;;;;;;;;;;5082496;28;20605;-40
2022/11/12 12:13:19;;;;;;;3.70;2.85;;;;;;;;;;5087311;28;20032;-40
2022/11/12 12:16:02;;;;;;;3.63;2.67;;;;;;;;;;5086826;28;20028;-40
2022/11/12 12:18:28;;;;;;;3.33;2.70;;;;;;;;;;5073597;28;20038;-43
2022/11/12 12:21:08;;;;;;;3.70;2.72;;;;;;;;;;5071246;28;20024;-40
2022/11/12 12:23:34;;;;;;;3.55;2.83;;;;;;;;;;5082155;28;20036;-40
2022/11/12 12:26:02;;;;;;;3.42;2.78;;;;;;;;;;5071072;28;20029;-40
2022/11/12 12:28:28;;;;;;;3.90;2.80;;;;;;;;;;5091164;28;20024;-40
2022/11/12 12:30:58;;;;;;;3.45;2.85;;;;;;;;;;5094162;28;20476;-40
2022/11/12 12:33:30;;;;;;;3.15;2.70;;;;;;;;;;5079460;28;20488;-40
2022/11/12 12:35:59;;;;;;;3.30;2.55;;;;;;;;;;5070145;28;20504;-40
2022/11/12 12:38:25;;;;;;;2.90;2.60;;;;;;;;;;5076137;28;20028;-40
2022/11/12 12:40:57;;;;;;;2.63;2.40;;;;;;;;;;5088183;28;20032;-40
2022/11/12 12:43:36;;;;;;;2.50;2.30;;;;;;;;;;5090348;28;21698;-40
2022/11/12 12:46:03;;;;;;;2.42;2.08;;;;;;;;;;5087193;28;20400;-40
2022/11/12 12:48:34;;;;;;;2.40;2.17;;;;;;;;;;5110701;28;20107;-40
2022/11/12 12:51:00;;;;;;;2.58;2.08;;;;;;;;;;5094418;28;20065;-40
2022/11/12 12:53:26;;;;;;;2.65;2.30;;;;;;;;;;5089753;28;20081;-40
2022/11/12 12:55:57;;;;;;;1.88;1.67;;;;;;;;;;5084397;28;20020;-40
2022/11/12 12:58:30;;;;;;;2.15;1.95;;;;;;;;;;5073565;28;20028;-41
2022/11/12 13:01:01;;;;;;;1.90;1.60;;;;;;;;;;5088457;28;20563;-40
2022/11/12 13:03:45;;;;;;;2.55;2.20;;;;;;;;;;5084479;28;20070;-40
2022/11/12 13:06:23;;;;;;;2.58;2.22;;;;;;;;;;5075471;28;20056;-40
2022/11/12 13:09:00;;;;;;;2.65;2.10;;;;;;;;;;5069690;28;20028;-40
2022/11/12 13:14:35;;;;;;;2.88;2.58;;;;;;;;;;5083482;28;20097;-40
2022/11/12 13:17:10;;;;;;;2.45;2.00;;;;;;;;;;5089906;28;20032;-40
2022/11/12 13:19:36;;;;;;;2.30;1.95;;;;;;;;;;5084133;28;20737;-40
2022/11/12 13:22:18;;;;;;;1.95;1.70;;;;;;;;;;5096026;28;20032;-40
2022/11/12 13:25:00;;;;;;;2.55;2.00;;;;;;;;;;5088853;28;20032;-40
2022/11/12 13:27:39;;;;;;;2.30;1.95;;;;;;;;;;5083548;28;20700;-40
2022/11/12 13:30:17;;;;;;;2.47;2.00;;;;;;;;;;5069886;28;20042;-40
2022/11/12 13:32:45;;;;;;;2.10;1.80;;;;;;;;;;5088606;28;20027;-40
2022/11/12 13:35:21;;;;;;;2.20;1.95;;;;;;;;;;5110179;28;20027;-40
2022/11/12 13:37:49;;;;;;;1.90;1.70;;;;;;;;;;5091989;28;20036;-40
2022/11/12 13:40:18;;;;;;;3.25;2.22;;;;;;;;;;5085697;28;20139;-40
2022/11/12 13:42:47;;;;;;;2.45;2.25;;;;;;;;;;5082601;28;20032;-40
2022/11/12 13:45:13;;;;;;;2.70;2.28;;;;;;;;;;5104458;28;20034;-41
2022/11/12 13:47:39;;;;;;;2.00;1.80;;;;;;;;;;5092002;28;20032;-40
2022/11/12 13:50:07;;;;;;;2.30;2.10;;;;;;;;;;5078913;28;20027;-40
2022/11/12 13:52:34;;;;;;;3.10;2.33;;;;;;;;;;5103054;28;20103;-40
2022/11/12 13:55:01;;;;;;;2.75;2.20;;;;;;;;;;5105957;28;20395;-40
2022/11/12 13:57:28;;;;;;;3.85;2.60;;;;;;;;;;5085244;28;20024;-40
2022/11/12 14:00:20;;;;;;;2.72;2.40;;;;;;;;;;5079108;28;20060;-40
2022/11/12 14:02:48;;;;;;;2.95;2.65;;;;;;;;;;5073367;28;20040;-40
2022/11/12 14:05:18;;;;;;;3.20;2.80;;;;;;;;;;5093047;28;20478;-40
2022/11/12 14:07:51;;;;;;;3.55;2.85;;;;;;;;;;5105356;28;20096;-41
2022/11/12 14:10:29;;;;;;;4.15;3.20;;;;;;;;;;5076123;28;20032;-40
2022/11/12 14:12:55;;;;;;;3.50;2.78;;;;;;;;;;5088802;28;20436;-40
2022/11/12 14:15:29;;;;;;;3.72;2.97;;;;;;;;;;5088791;28;20095;-40
2022/11/12 14:18:04;;;;;;;3.80;3.08;;;;;;;;;;5088600;28;20451;-40
2022/11/12 14:20:39;;;;;;;3.00;2.65;;;;;;;;;;5088378;28;20020;-40
2022/11/12 14:23:11;;;;;;;3.03;2.25;;;;;;;;;;5086708;28;20138;-40
2022/11/12 14:25:47;;;;;;;3.08;2.70;;;;;;;;;;5086444;28;20038;-40
2022/11/12 14:28:28;;;;;;;3.63;2.95;;;;;;;;;;5109231;28;20110;-40
2022/11/12 14:30:55;;;;;;;3.00;2.65;;;;;;;;;;5085903;28;20028;-40
2022/11/12 14:33:22;;;;;;;3.72;2.90;;;;;;;;;;5069300;28;20035;-40
2022/11/12 14:35:49;;;;;;;3.60;2.97;;;;;;;;;;5077618;28;20020;-40
2022/11/12 14:38:21;;;;;;;4.03;2.97;;;;;;;;;;5105596;28;20023;-40
2022/11/12 14:40:54;;;;;;;3.20;2.90;;;;;;;;;;5094783;28;20032;-40
2022/11/12 14:43:23;;;;;;;2.90;2.60;;;;;;;;;;5087337;28;20570;-41
2022/11/12 14:45:49;;;;;;;3.83;2.47;;;;;;;;;;5088074;28;20757;-41
2022/11/12 14:48:16;;;;;;;3.55;2.75;;;;;;;;;;5087803;28;20024;-41
2022/11/12 14:50:44;;;;;;;3.83;2.88;;;;;;;;;;5087661;28;20456;-41
2022/11/12 14:53:33;;;;;;;4.15;3.08;;;;;;;;;;5079041;28;20025;-41
2022/11/12 14:56:00;;;;;;;4.10;3.60;;;;;;;;;;5054167;28;20044;-41
2022/11/12 14:58:27;;;;;;;4.47;3.50;;;;;;;;;;5087932;28;20407;-41
2022/11/12 15:00:54;;;;;;;3.58;2.72;;;;;;;;;;5087894;28;20024;-40
2022/11/12 15:03:23;;;;;;;4.28;3.40;;;;;;;;;;5087441;28;20058;-41
2022/11/12 15:06:15;;;;;;;4.72;3.65;;;;;;;;;;5087161;28;20044;-40
2022/11/12 15:08:41;;;;;;;4.40;3.50;;;;;;;;;;5083878;28;20043;-41
2022/11/12 15:11:25;;;;;;;3.80;3.17;;;;;;;;;;5086928;28;20038;-41
2022/11/12 15:13:53;;;;;;;4.07;3.50;;;;;;;;;;5067212;28;20032;-41
2022/11/12 15:16:29;;;;;;;4.28;3.38;;;;;;;;;;5067112;28;20028;-40
2022/11/12 15:19:03;;;;;;;4.88;3.50;;;;;;;;;;5067286;28;20031;-40
2022/11/12 15:21:29;;;;;;;5.28;3.67;;;;;;;;;;5067081;28;20039;-40
2022/11/12 15:23:55;;;;;;;4.93;3.45;;;;;;;;;;5067127;28;20052;-40
2022/11/12 15:26:30;;;;;;;4.70;3.80;;;;;;;;;;5066982;28;20052;-40
2022/11/12 15:29:00;;;;;;;4.63;3.88;;;;;;;;;;5068151;28;20032;-41
2022/11/12 15:31:26;;;;;;;5.85;4.00;;;;;;;;;;5107524;28;20024;-40
2022/11/12 15:33:55;;;;;;;3.33;3.00;;;;;;;;;;5107373;28;20030;-40
2022/11/12 15:36:22;;;;;;;5.22;4.13;;;;;;;;;;5107372;28;20019;-40
2022/11/12 15:38:53;;;;;;;4.72;3.67;;;;;;;;;;5096510;28;20028;-40
2022/11/12 15:41:24;;;;;;;5.18;3.90;;;;;;;;;;5090475;28;20031;-40
2022/11/12 15:43:50;;;;;;;5.38;4.30;;;;;;;;;;5086930;28;20040;-40
2022/11/12 15:46:16;;;;;;;4.82;3.70;;;;;;;;;;5087201;28;20028;-40
2022/11/12 15:48:42;;;;;;;5.22;4.20;;;;;;;;;;5087412;28;20032;-40
2022/11/12 15:51:08;;;;;;;4.97;3.97;;;;;;;;;;5086867;28;20047;-41
2022/11/12 15:53:34;;;;;;;5.40;4.32;;;;;;;;;;5065991;28;20483;-40
2022/11/12 15:56:02;;;;;;;5.35;3.65;;;;;;;;;;5066534;28;20062;-40
2022/11/12 15:58:33;;;;;;;5.03;3.85;;;;;;;;;;5066736;28;20066;-40
2022/11/12 16:00:59;;;;;;;5.40;4.43;;;;;;;;;;5084243;28;20032;-40
2022/11/12 16:03:25;;;;;;;4.70;3.90;;;;;;;;;;5085947;28;20036;-41
2022/11/12 16:05:52;;;;;;;6.13;4.38;;;;;;;;;;5086470;28;20036;-40
2022/11/12 16:08:19;;;;;;;6.15;4.10;;;;;;;;;;5086808;28;20020;-40
2022/11/12 16:10:46;;;;;;;6.60;3.97;;;;;;;;;;5086884;28;20146;-40
2022/11/12 16:13:34;;;;;;;5.50;4.13;;;;;;;;;;5084923;28;20055;-40
2022/11/12 16:16:03;;;;;;;5.15;4.15;;;;;;;;;;5086749;28;20038;-40
2022/11/12 16:18:29;;;;;;;6.05;4.38;;;;;;;;;;5086468;28;20032;-40
2022/11/12 16:20:55;;;;;;;5.95;4.40;;;;;;;;;;5086676;28;20065;-40
2022/11/12 16:23:21;;;;;;;7.50;4.85;;;;;;;;;;5086755;28;20024;-40
2022/11/12 16:25:47;;;;;;;6.55;4.82;;;;;;;;;;5085464;28;20039;-40
2022/11/12 16:28:14;;;;;;;6.47;5.10;;;;;;;;;;5087328;28;20020;-40
2022/11/12 16:30:40;;;;;;;6.55;4.78;;;;;;;;;;5087405;28;20028;-40
2022/11/12 16:33:06;;;;;;;6.70;5.10;;;;;;;;;;5086326;28;20051;-40
2022/11/12 16:35:33;;;;;;;6.72;5.55;;;;;;;;;;5086357;28;20020;-40
2022/11/12 16:38:00;;;;;;;7.97;5.68;;;;;;;;;;5086723;28;20510;-40
2022/11/12 16:40:27;;;;;;;8.75;5.60;;;;;;;;;;5086742;28;20040;-40
2022/11/12 16:42:53;;;;;;;10.32;5.57;;;;;;;;;;5086490;28;20111;-40
2022/11/12 16:45:21;;;;;;;11.98;6.18;;;;;;;;;;5086460;28;20032;-40
2022/11/12 16:47:49;;;;;;;10.38;6.35;;;;;;;;;;5086078;28;20024;-40
2022/11/12 16:50:17;;;;;;;8.07;5.05;;;;;;;;;;5086518;28;20039;-40
2022/11/12 16:52:43;;;;;;;8.63;5.38;;;;;;;;;;5082973;28;20103;-40
2022/11/12 16:55:09;;;;;;;9.25;5.20;;;;;;;;;;5065129;28;20078;-40
2022/11/12 16:57:35;;;;;;;7.15;4.47;;;;;;;;;;5066233;28;20040;-41
2022/11/12 17:00:02;;;;;;;6.65;4.10;;;;;;;;;;5066032;28;20078;-40
2022/11/12 17:02:29;;;;;;;6.18;3.75;;;;;;;;;;5065775;28;20029;-40
2022/11/12 17:04:55;;;;;;;6.22;4.10;;;;;;;;;;5065613;28;20079;-40
2022/11/12 17:07:21;;;;;;;4.97;3.90;;;;;;;;;;5065882;28;20056;-40
2022/11/12 17:09:47;;;;;;;5.70;4.13;;;;;;;;;;5066263;28;20029;-40
2022/11/12 17:12:14;;;;;;;4.60;3.67;;;;;;;;;;5067054;28;20503;-40
2022/11/12 17:14:40;;;;;;;6.13;4.03;;;;;;;;;;5066528;28;20513;-40
2022/11/12 17:17:06;;;;;;;6.32;4.28;;;;;;;;;;5070601;28;20036;-40
2022/11/12 17:19:32;;;;;;;4.32;3.40;;;;;;;;;;5069322;28;20032;-40
2022/11/12 17:21:59;;;;;;;5.40;3.67;;;;;;;;;;5073878;28;20075;-40
2022/11/12 17:24:26;;;;;;;4.70;3.60;;;;;;;;;;5081900;28;20760;-40
2022/11/12 17:26:52;;;;;;;4.90;4.18;;;;;;;;;;5079704;28;20039;-40
2022/11/12 17:29:18;;;;;;;4.78;3.55;;;;;;;;;;5082657;28;20115;-41
2022/11/12 17:31:48;;;;;;;4.60;3.83;;;;;;;;;;5088424;28;20498;-40
2022/11/12 17:34:14;;;;;;;5.15;4.03;;;;;;;;;;5088041;28;20527;-41
2022/11/12 17:36:40;;;;;;;4.45;3.97;;;;;;;;;;5078057;28;20376;-41
2022/11/12 17:39:06;;;;;;;5.10;4.00;;;;;;;;;;5081366;28;20562;-41
2022/11/12 17:41:32;;;;;;;5.20;4.00;;;;;;;;;;5072181;28;20077;-40
2022/11/12 17:43:59;;;;;;;5.55;4.20;;;;;;;;;;5080336;28;20032;-40
2022/11/12 17:46:25;;;;;;;6.03;4.63;;;;;;;;;;5072211;28;20518;-41
2022/11/12 17:48:51;;;;;;;5.25;4.03;;;;;;;;;;5061350;28;20143;-41
2022/11/12 17:51:19;;;;;;;5.65;4.35;;;;;;;;;;5077098;28;20020;-41
2022/11/12 17:53:46;;;;;;;5.63;4.60;;;;;;;;;;5078205;28;20515;-41
2022/11/12 17:56:14;;;;;;;5.55;4.40;;;;;;;;;;5072698;28;20551;-41
2022/11/12 17:58:40;;;;;;;6.85;4.38;;;;;;;;;;5070975;28;20071;-41
2022/11/12 18:01:11;;;;;;;6.07;4.53;;;;;;;;;;5081686;28;20066;-41
2022/11/12 18:03:41;;;;;;;5.43;4.30;;;;;;;;;;5086181;28;20032;-41
2022/11/12 18:06:11;;;;;;;7.25;5.00;;;;;;;;;;5081655;28;20446;-41
2022/11/12 18:08:37;;;;;;;5.88;4.75;;;;;;;;;;5049961;28;20040;-41
2022/11/12 18:11:03;;;;;;;7.03;4.95;;;;;;;;;;5072966;28;20668;-41
2022/11/12 18:13:29;;;;;;;7.07;5.38;;;;;;;;;;5076564;28;20366;-41
2022/11/12 18:15:55;;;;;;;8.38;5.28;;;;;;;;;;5074563;28;20024;-41
2022/11/12 18:18:21;;;;;;;8.55;4.97;;;;;;;;;;5077302;28;20039;-41
2022/11/12 18:20:47;;;;;;;8.43;5.82;;;;;;;;;;5080175;28;20031;-41
2022/11/12 18:23:13;;;;;;;8.50;5.78;;;;;;;;;;5053968;28;20381;-41
2022/11/12 18:25:39;;;;;;;6.68;5.30;;;;;;;;;;5081542;28;20028;-41
2022/11/12 18:28:06;;;;;;;8.95;6.15;;;;;;;;;;5069427;28;20452;-41
2022/11/12 18:30:34;;;;;;;7.18;5.15;;;;;;;;;;5066335;28;20464;-41
2022/11/12 18:33:00;;;;;;;7.78;5.60;;;;;;;;;;5067214;28;20017;-41
2022/11/12 18:35:26;;;;;;;7.70;5.65;;;;;;;;;;5067496;28;20094;-41
2022/11/12 18:37:52;;;;;;;7.95;5.38;;;;;;;;;;5072095;28;20031;-41
2022/11/12 18:40:20;;;;;;;9.70;6.07;;;;;;;;;;5091933;28;20114;-41
2022/11/12 18:42:46;;;;;;;8.40;5.35;;;;;;;;;;5084579;28;20020;-41
2022/11/12 18:45:12;;;;;;;6.88;5.05;;;;;;;;;;5072852;28;20436;-41
2022/11/12 18:47:38;;;;;;;7.28;5.30;;;;;;;;;;5075782;28;20483;-41
2022/11/12 18:50:05;;;;;;;7.15;5.18;;;;;;;;;;5079082;28;20530;-41
2022/11/12 18:52:31;;;;;;;6.60;4.78;;;;;;;;;;5080235;28;20024;-41
2022/11/12 18:54:57;;;;;;;7.90;5.13;;;;;;;;;;5086728;28;20028;-41
2022/11/12 18:57:23;;;;;;;7.63;5.13;;;;;;;;;;5094333;28;20429;-41
2022/11/12 18:59:53;;;;;;;5.70;4.38;;;;;;;;;;5050601;28;20446;-41
2022/11/12 19:02:20;;;;;;;6.18;4.50;;;;;;;;;;5077188;28;20056;-41
2022/11/12 19:04:46;;;;;;;7.05;5.15;;;;;;;;;;5074321;28;20037;-41
2022/11/12 19:07:12;;;;;;;7.20;4.95;;;;;;;;;;5075246;28;20039;-41
2022/11/12 19:09:38;;;;;;;5.63;4.43;;;;;;;;;;5071297;28;20399;-41
2022/11/12 19:12:04;;;;;;;6.20;4.45;;;;;;;;;;5076320;28;20028;-41
2022/11/12 19:14:30;;;;;;;6.05;4.60;;;;;;;;;;5074438;28;20020;-41
2022/11/12 19:16:56;;;;;;;5.65;4.43;;;;;;;;;;5071062;28;20111;-41
2022/11/12 19:19:23;;;;;;;5.20;3.90;;;;;;;;;;5076076;28;20028;-41
2022/11/12 19:21:49;;;;;;;6.70;4.40;;;;;;;;;;5071851;28;20036;-41
2022/11/12 19:24:15;;;;;;;7.88;4.82;;;;;;;;;;5073715;28;20029;-41
2022/11/12 19:26:41;;;;;;;8.07;4.90;;;;;;;;;;5077532;28;20020;-41
2022/11/12 19:29:07;;;;;;;7.25;5.30;;;;;;;;;;5057600;28;20037;-41
2022/11/12 19:31:33;;;;;;;7.53;5.32;;;;;;;;;;5072543;28;20420;-41
2022/11/12 19:34:00;;;;;;;7.60;5.10;;;;;;;;;;5086409;28;20078;-41
2022/11/12 19:36:26;;;;;;;8.65;5.65;;;;;;;;;;5067722;28;20028;-41
2022/11/12 19:38:54;;;;;;;11.32;6.95;;;;;;;;;;5085038;28;20396;-41
2022/11/12 19:41:20;;;;;;;15.40;8.43;;;;;;;;;;5055002;28;20675;-41
2022/11/12 19:43:46;;;;;;;18.42;8.55;;;;;;;;;;5065683;28;20499;-41
2022/11/12 19:46:13;;;;;;;14.20;8.25;;;;;;;;;;5076736;28;20725;-41
2022/11/12 19:48:39;;;;;;;16.13;8.25;;;;;;;;;;5067405;28;20064;-41
2022/11/12 19:51:07;;;;;;;14.13;8.45;;;;;;;;;;5076319;28;20028;-41
2022/11/12 19:53:33;;;;;;;13.48;8.27;;;;;;;;;;5069638;28;20093;-41
2022/11/12 19:56:03;;;;;;;12.85;7.85;;;;;;;;;;5073368;28;20107;-41
2022/11/12 19:58:33;;;;;;;13.38;8.05;;;;;;;;;;5071204;28;20108;-41
2022/11/12 20:01:05;;;;;;;10.63;6.75;;;;;;;;;;5086517;28;20067;-41
2022/11/12 20:03:32;;;;;;;12.00;7.07;;;;;;;;;;5077658;28;20365;-41
2022/11/12 20:06:06;;;;;;;8.57;5.78;;;;;;;;;;5072310;28;20035;-41